sensor_id;sensor_type;location;lat;lon;timestamp;P1;durP1;ratioP1;P2;durP2;ratioP2
73437;SDS011;62744;56.802;23.964;2022-09-03T00:00:31;4.30;;;1.90;;
73437;SDS011;62744;56.802;23.964;2022-09-03T00:03:07;4.10;;;1.23;;
73437;SDS011;62744;56.802;23.964;2022-09-03T00:05:54;4.03;;;1.88;;
73437;SDS011;62744;56.802;23.964;2022-09-03T00:08:32;4.30;;;1.85;;
73437;SDS011;62744;56.802;23.964;2022-09-03T00:11:17;4.30;;;1.65;;
73437;SDS011;62744;56.802;23.964;2022-09-03T00:13:53;4.25;;;2.05;;
73437;SDS011;62744;56.802;23.964;2022-09-03T00:16:50;6.20;;;1.90;;
73437;SDS011;62744;56.802;23.964;2022-09-03T00:19:23;5.20;;;1.42;;
73437;SDS011;62744;56.802;23.964;2022-09-03T00:21:59;3.90;;;1.65;;
73437;SDS011;62744;56.802;23.964;2022-09-03T00:24:34;4.72;;;1.90;;
73437;SDS011;62744;56.802;23.964;2022-09-03T00:27:15;4.10;;;2.17;;
73437;SDS011;62744;56.802;23.964;2022-09-03T00:30:05;4.37;;;2.07;;
73437;SDS011;62744;56.802;23.964;2022-09-03T00:35:15;3.80;;;1.58;;
73437;SDS011;62744;56.802;23.964;2022-09-03T00:37:53;3.83;;;1.90;;
73437;SDS011;62744;56.802;23.964;2022-09-03T00:43:33;4.07;;;1.60;;
73437;SDS011;62744;56.802;23.964;2022-09-03T00:51:55;4.30;;;1.88;;
73437;SDS011;62744;56.802;23.964;2022-09-03T00:54:55;5.03;;;2.75;;
73437;SDS011;62744;56.802;23.964;2022-09-03T00:57:45;4.17;;;1.80;;
73437;SDS011;62744;56.802;23.964;2022-09-03T01:00:28;4.28;;;1.88;;
73437;SDS011;62744;56.802;23.964;2022-09-03T01:08:55;4.38;;;2.05;;
73437;SDS011;62744;56.802;23.964;2022-09-03T01:14:16;5.50;;;1.52;;
73437;SDS011;62744;56.802;23.964;2022-09-03T01:25:14;5.13;;;1.40;;
73437;SDS011;62744;56.802;23.964;2022-09-03T01:28:00;4.00;;;2.30;;
73437;SDS011;62744;56.802;23.964;2022-09-03T01:30:32;4.40;;;2.13;;
73437;SDS011;62744;56.802;23.964;2022-09-03T01:39:05;16.03;;;1.63;;
73437;SDS011;62744;56.802;23.964;2022-09-03T01:41:47;11.63;;;1.40;;
73437;SDS011;62744;56.802;23.964;2022-09-03T01:48:14;17.63;;;2.72;;
73437;SDS011;62744;56.802;23.964;2022-09-03T02:02:01;3.40;;;1.17;;
73437;SDS011;62744;56.802;23.964;2022-09-03T02:04:56;3.88;;;1.60;;
73437;SDS011;62744;56.802;23.964;2022-09-03T02:07:35;5.50;;;1.60;;
73437;SDS011;62744;56.802;23.964;2022-09-03T02:10:14;3.40;;;1.13;;
73437;SDS011;62744;56.802;23.964;2022-09-03T02:12:47;3.60;;;1.73;;
73437;SDS011;62744;56.802;23.964;2022-09-03T02:15:19;3.47;;;1.33;;
73437;SDS011;62744;56.802;23.964;2022-09-03T02:17:49;3.10;;;0.93;;
73437;SDS011;62744;56.802;23.964;2022-09-03T02:20:21;3.53;;;1.30;;
73437;SDS011;62744;56.802;23.964;2022-09-03T02:22:52;3.30;;;1.02;;
73437;SDS011;62744;56.802;23.964;2022-09-03T02:25:21;3.40;;;1.65;;
73437;SDS011;62744;56.802;23.964;2022-09-03T02:27:52;3.38;;;1.38;;
73437;SDS011;62744;56.802;23.964;2022-09-03T02:30:20;4.25;;;1.30;;
73437;SDS011;62744;56.802;23.964;2022-09-03T02:32:48;10.70;;;1.07;;
73437;SDS011;62744;56.802;23.964;2022-09-03T02:35:15;3.50;;;1.17;;
73437;SDS011;62744;56.802;23.964;2022-09-03T02:37:43;4.85;;;1.40;;
73437;SDS011;62744;56.802;23.964;2022-09-03T02:40:11;3.20;;;0.90;;
73437;SDS011;62744;56.802;23.964;2022-09-03T02:42:39;3.28;;;1.20;;
73437;SDS011;62744;56.802;23.964;2022-09-03T02:45:23;4.13;;;1.57;;
73437;SDS011;62744;56.802;23.964;2022-09-03T02:47:55;4.00;;;1.50;;
73437;SDS011;62744;56.802;23.964;2022-09-03T02:50:26;4.05;;;1.52;;
73437;SDS011;62744;56.802;23.964;2022-09-03T02:52:53;3.72;;;1.52;;
73437;SDS011;62744;56.802;23.964;2022-09-03T02:55:21;3.72;;;1.50;;
73437;SDS011;62744;56.802;23.964;2022-09-03T02:57:49;3.50;;;1.03;;
73437;SDS011;62744;56.802;23.964;2022-09-03T03:00:17;3.75;;;1.65;;
73437;SDS011;62744;56.802;23.964;2022-09-03T03:02:44;3.70;;;1.80;;
73437;SDS011;62744;56.802;23.964;2022-09-03T03:05:14;4.05;;;1.33;;
73437;SDS011;62744;56.802;23.964;2022-09-03T03:07:50;4.18;;;1.48;;
73437;SDS011;62744;56.802;23.964;2022-09-03T03:10:18;3.40;;;1.50;;
73437;SDS011;62744;56.802;23.964;2022-09-03T03:12:45;3.60;;;0.98;;
73437;SDS011;62744;56.802;23.964;2022-09-03T03:15:13;4.05;;;1.58;;
73437;SDS011;62744;56.802;23.964;2022-09-03T03:17:41;4.00;;;1.40;;
73437;SDS011;62744;56.802;23.964;2022-09-03T03:20:09;3.78;;;1.83;;
73437;SDS011;62744;56.802;23.964;2022-09-03T03:22:36;3.77;;;1.90;;
73437;SDS011;62744;56.802;23.964;2022-09-03T03:25:04;3.70;;;1.23;;
73437;SDS011;62744;56.802;23.964;2022-09-03T03:27:32;4.45;;;1.98;;
73437;SDS011;62744;56.802;23.964;2022-09-03T03:30:02;3.78;;;1.27;;
73437;SDS011;62744;56.802;23.964;2022-09-03T03:32:30;3.83;;;1.83;;
73437;SDS011;62744;56.802;23.964;2022-09-03T03:34:58;3.80;;;2.00;;
73437;SDS011;62744;56.802;23.964;2022-09-03T03:37:25;3.70;;;1.63;;
73437;SDS011;62744;56.802;23.964;2022-09-03T03:39:53;4.50;;;2.03;;
73437;SDS011;62744;56.802;23.964;2022-09-03T03:42:21;3.70;;;1.45;;
73437;SDS011;62744;56.802;23.964;2022-09-03T03:44:48;5.57;;;1.98;;
73437;SDS011;62744;56.802;23.964;2022-09-03T03:47:16;3.40;;;1.20;;
73437;SDS011;62744;56.802;23.964;2022-09-03T03:49:44;3.63;;;1.85;;
73437;SDS011;62744;56.802;23.964;2022-09-03T03:52:11;4.07;;;2.10;;
73437;SDS011;62744;56.802;23.964;2022-09-03T03:54:38;3.90;;;1.70;;
73437;SDS011;62744;56.802;23.964;2022-09-03T03:57:06;5.10;;;1.52;;
73437;SDS011;62744;56.802;23.964;2022-09-03T03:59:33;4.10;;;1.67;;
73437;SDS011;62744;56.802;23.964;2022-09-03T04:02:01;5.43;;;2.28;;
73437;SDS011;62744;56.802;23.964;2022-09-03T04:04:29;4.55;;;1.88;;
73437;SDS011;62744;56.802;23.964;2022-09-03T04:06:56;4.13;;;1.77;;
73437;SDS011;62744;56.802;23.964;2022-09-03T04:09:24;3.95;;;1.73;;
73437;SDS011;62744;56.802;23.964;2022-09-03T04:11:52;4.73;;;1.80;;
73437;SDS011;62744;56.802;23.964;2022-09-03T04:14:19;4.32;;;2.10;;
73437;SDS011;62744;56.802;23.964;2022-09-03T04:16:47;4.65;;;2.30;;
73437;SDS011;62744;56.802;23.964;2022-09-03T04:19:16;4.93;;;2.22;;
73437;SDS011;62744;56.802;23.964;2022-09-03T04:21:45;4.53;;;2.35;;
73437;SDS011;62744;56.802;23.964;2022-09-03T04:24:12;5.40;;;1.57;;
73437;SDS011;62744;56.802;23.964;2022-09-03T04:26:40;4.00;;;1.45;;
73437;SDS011;62744;56.802;23.964;2022-09-03T04:29:08;3.95;;;1.90;;
73437;SDS011;62744;56.802;23.964;2022-09-03T04:31:37;5.57;;;1.70;;
73437;SDS011;62744;56.802;23.964;2022-09-03T04:34:26;4.20;;;1.70;;
73437;SDS011;62744;56.802;23.964;2022-09-03T04:36:53;3.57;;;1.07;;
73437;SDS011;62744;56.802;23.964;2022-09-03T04:39:23;4.03;;;1.40;;
73437;SDS011;62744;56.802;23.964;2022-09-03T04:41:52;6.90;;;2.20;;
73437;SDS011;62744;56.802;23.964;2022-09-03T04:44:20;3.78;;;1.25;;
73437;SDS011;62744;56.802;23.964;2022-09-03T04:46:48;4.95;;;2.05;;
73437;SDS011;62744;56.802;23.964;2022-09-03T04:49:15;3.93;;;1.50;;
73437;SDS011;62744;56.802;23.964;2022-09-03T04:51:43;4.10;;;1.90;;
73437;SDS011;62744;56.802;23.964;2022-09-03T04:54:11;3.67;;;1.55;;
73437;SDS011;62744;56.802;23.964;2022-09-03T04:56:38;4.85;;;2.38;;
73437;SDS011;62744;56.802;23.964;2022-09-03T04:59:07;4.85;;;2.20;;
73437;SDS011;62744;56.802;23.964;2022-09-03T05:01:36;4.23;;;1.87;;
73437;SDS011;62744;56.802;23.964;2022-09-03T05:04:06;3.85;;;1.52;;
73437;SDS011;62744;56.802;23.964;2022-09-03T05:06:34;4.03;;;2.08;;
73437;SDS011;62744;56.802;23.964;2022-09-03T05:09:03;4.30;;;1.90;;
73437;SDS011;62744;56.802;23.964;2022-09-03T05:11:31;4.30;;;1.98;;
73437;SDS011;62744;56.802;23.964;2022-09-03T05:14:00;3.77;;;1.47;;
73437;SDS011;62744;56.802;23.964;2022-09-03T05:16:28;3.80;;;1.52;;
73437;SDS011;62744;56.802;23.964;2022-09-03T05:18:57;4.70;;;1.73;;
73437;SDS011;62744;56.802;23.964;2022-09-03T05:21:27;4.22;;;1.70;;
73437;SDS011;62744;56.802;23.964;2022-09-03T05:23:55;5.50;;;1.50;;
73437;SDS011;62744;56.802;23.964;2022-09-03T05:26:26;4.07;;;1.67;;
73437;SDS011;62744;56.802;23.964;2022-09-03T05:28:56;4.85;;;1.58;;
73437;SDS011;62744;56.802;23.964;2022-09-03T05:31:26;5.32;;;1.80;;
73437;SDS011;62744;56.802;23.964;2022-09-03T05:33:58;4.40;;;1.58;;
73437;SDS011;62744;56.802;23.964;2022-09-03T05:36:30;3.78;;;1.83;;
73437;SDS011;62744;56.802;23.964;2022-09-03T05:39:00;5.83;;;1.97;;
73437;SDS011;62744;56.802;23.964;2022-09-03T05:41:29;4.22;;;1.75;;
73437;SDS011;62744;56.802;23.964;2022-09-03T05:43:57;4.90;;;1.80;;
73437;SDS011;62744;56.802;23.964;2022-09-03T05:46:27;4.03;;;1.45;;
73437;SDS011;62744;56.802;23.964;2022-09-03T05:48:59;4.22;;;1.73;;
73437;SDS011;62744;56.802;23.964;2022-09-03T05:51:29;3.70;;;1.20;;
73437;SDS011;62744;56.802;23.964;2022-09-03T05:53:57;4.20;;;1.90;;
73437;SDS011;62744;56.802;23.964;2022-09-03T05:56:26;5.78;;;1.90;;
73437;SDS011;62744;56.802;23.964;2022-09-03T05:58:56;4.18;;;1.73;;
73437;SDS011;62744;56.802;23.964;2022-09-03T06:01:27;6.60;;;2.63;;
73437;SDS011;62744;56.802;23.964;2022-09-03T06:04:00;11.93;;;4.23;;
73437;SDS011;62744;56.802;23.964;2022-09-03T06:06:34;7.30;;;3.22;;
73437;SDS011;62744;56.802;23.964;2022-09-03T06:09:04;5.25;;;2.50;;
73437;SDS011;62744;56.802;23.964;2022-09-03T06:11:37;6.45;;;2.58;;
73437;SDS011;62744;56.802;23.964;2022-09-03T06:14:07;5.60;;;2.17;;
73437;SDS011;62744;56.802;23.964;2022-09-03T06:16:36;5.97;;;2.73;;
73437;SDS011;62744;56.802;23.964;2022-09-03T06:19:05;4.97;;;1.80;;
73437;SDS011;62744;56.802;23.964;2022-09-03T06:21:35;4.65;;;1.48;;
73437;SDS011;62744;56.802;23.964;2022-09-03T06:24:09;4.00;;;1.55;;
73437;SDS011;62744;56.802;23.964;2022-09-03T06:26:40;3.72;;;1.15;;
73437;SDS011;62744;56.802;23.964;2022-09-03T06:29:08;3.60;;;1.10;;
73437;SDS011;62744;56.802;23.964;2022-09-03T06:31:37;3.40;;;1.30;;
73437;SDS011;62744;56.802;23.964;2022-09-03T06:34:05;3.22;;;0.90;;
73437;SDS011;62744;56.802;23.964;2022-09-03T06:36:34;3.13;;;0.80;;
73437;SDS011;62744;56.802;23.964;2022-09-03T06:39:01;3.10;;;1.10;;
73437;SDS011;62744;56.802;23.964;2022-09-03T06:41:30;3.93;;;0.93;;
73437;SDS011;62744;56.802;23.964;2022-09-03T06:44:02;4.35;;;1.10;;
73437;SDS011;62744;56.802;23.964;2022-09-03T06:46:33;3.53;;;1.10;;
73437;SDS011;62744;56.802;23.964;2022-09-03T06:49:01;3.88;;;1.20;;
73437;SDS011;62744;56.802;23.964;2022-09-03T06:51:30;3.50;;;1.20;;
73437;SDS011;62744;56.802;23.964;2022-09-03T06:54:08;3.50;;;1.10;;
73437;SDS011;62744;56.802;23.964;2022-09-03T06:56:38;4.13;;;1.35;;
73437;SDS011;62744;56.802;23.964;2022-09-03T06:59:13;3.33;;;1.20;;
73437;SDS011;62744;56.802;23.964;2022-09-03T07:01:42;3.38;;;1.10;;
73437;SDS011;62744;56.802;23.964;2022-09-03T07:04:12;3.67;;;1.77;;
73437;SDS011;62744;56.802;23.964;2022-09-03T07:06:46;3.23;;;0.90;;
73437;SDS011;62744;56.802;23.964;2022-09-03T07:09:13;3.78;;;1.10;;
73437;SDS011;62744;56.802;23.964;2022-09-03T07:11:43;3.55;;;1.00;;
73437;SDS011;62744;56.802;23.964;2022-09-03T07:14:15;3.20;;;1.23;;
73437;SDS011;62744;56.802;23.964;2022-09-03T07:16:45;3.67;;;1.55;;
73437;SDS011;62744;56.802;23.964;2022-09-03T07:19:14;4.47;;;1.10;;
73437;SDS011;62744;56.802;23.964;2022-09-03T07:21:42;3.60;;;0.95;;
73437;SDS011;62744;56.802;23.964;2022-09-03T07:24:16;3.88;;;1.25;;
73437;SDS011;62744;56.802;23.964;2022-09-03T07:26:45;3.88;;;0.85;;
73437;SDS011;62744;56.802;23.964;2022-09-03T07:29:15;3.28;;;1.10;;
73437;SDS011;62744;56.802;23.964;2022-09-03T07:31:46;3.67;;;0.90;;
73437;SDS011;62744;56.802;23.964;2022-09-03T07:34:18;3.00;;;0.80;;
73437;SDS011;62744;56.802;23.964;2022-09-03T07:36:47;3.03;;;0.85;;
73437;SDS011;62744;56.802;23.964;2022-09-03T07:39:17;3.10;;;0.88;;
73437;SDS011;62744;56.802;23.964;2022-09-03T07:41:45;3.95;;;1.10;;
73437;SDS011;62744;56.802;23.964;2022-09-03T07:44:14;3.47;;;0.90;;
73437;SDS011;62744;56.802;23.964;2022-09-03T07:46:45;2.80;;;0.88;;
73437;SDS011;62744;56.802;23.964;2022-09-03T07:49:14;3.30;;;0.70;;
73437;SDS011;62744;56.802;23.964;2022-09-03T07:51:43;3.10;;;0.88;;
73437;SDS011;62744;56.802;23.964;2022-09-03T07:54:12;2.90;;;0.88;;
73437;SDS011;62744;56.802;23.964;2022-09-03T07:56:39;2.90;;;0.70;;
73437;SDS011;62744;56.802;23.964;2022-09-03T07:59:07;3.45;;;0.63;;
73437;SDS011;62744;56.802;23.964;2022-09-03T08:01:35;42.67;;;18.30;;
73437;SDS011;62744;56.802;23.964;2022-09-03T08:04:07;6.10;;;2.33;;
73437;SDS011;62744;56.802;23.964;2022-09-03T08:06:35;3.55;;;0.90;;
73437;SDS011;62744;56.802;23.964;2022-09-03T08:09:05;2.80;;;0.80;;
73437;SDS011;62744;56.802;23.964;2022-09-03T08:11:35;2.90;;;0.63;;
73437;SDS011;62744;56.802;23.964;2022-09-03T08:14:05;3.10;;;0.95;;
73437;SDS011;62744;56.802;23.964;2022-09-03T08:16:39;3.42;;;1.10;;
73437;SDS011;62744;56.802;23.964;2022-09-03T08:19:08;3.53;;;1.15;;
73437;SDS011;62744;56.802;23.964;2022-09-03T08:21:37;3.27;;;0.97;;
73437;SDS011;62744;56.802;23.964;2022-09-03T08:24:08;3.92;;;1.25;;
73437;SDS011;62744;56.802;23.964;2022-09-03T08:26:40;3.63;;;0.90;;
73437;SDS011;62744;56.802;23.964;2022-09-03T08:29:15;5.13;;;2.25;;
73437;SDS011;62744;56.802;23.964;2022-09-03T08:31:43;3.55;;;1.80;;
73437;SDS011;62744;56.802;23.964;2022-09-03T08:34:11;3.27;;;1.23;;
73437;SDS011;62744;56.802;23.964;2022-09-03T08:36:40;3.47;;;1.20;;
73437;SDS011;62744;56.802;23.964;2022-09-03T08:39:09;3.38;;;1.15;;
73437;SDS011;62744;56.802;23.964;2022-09-03T08:44:30;3.45;;;1.50;;
73437;SDS011;62744;56.802;23.964;2022-09-03T08:47:18;4.07;;;0.90;;
73437;SDS011;62744;56.802;23.964;2022-09-03T08:49:57;3.25;;;1.10;;
73437;SDS011;62744;56.802;23.964;2022-09-03T08:58:35;3.20;;;1.25;;
73437;SDS011;62744;56.802;23.964;2022-09-03T09:03:19;3.30;;;1.65;;
73437;SDS011;62744;56.802;23.964;2022-09-03T09:08:55;3.80;;;1.55;;
73437;SDS011;62744;56.802;23.964;2022-09-03T09:11:45;3.38;;;0.98;;
73437;SDS011;62744;56.802;23.964;2022-09-03T09:23:00;3.20;;;1.15;;
73437;SDS011;62744;56.802;23.964;2022-09-03T09:25:36;4.00;;;0.70;;
73437;SDS011;62744;56.802;23.964;2022-09-03T09:28:22;2.73;;;0.53;;
73437;SDS011;62744;56.802;23.964;2022-09-03T09:30:53;3.42;;;0.85;;
73437;SDS011;62744;56.802;23.964;2022-09-03T09:33:23;3.90;;;1.20;;
73437;SDS011;62744;56.802;23.964;2022-09-03T09:35:54;2.70;;;0.85;;
73437;SDS011;62744;56.802;23.964;2022-09-03T09:38:32;3.20;;;1.23;;
73437;SDS011;62744;56.802;23.964;2022-09-03T09:41:07;2.80;;;0.93;;
73437;SDS011;62744;56.802;23.964;2022-09-03T09:43:36;3.08;;;1.40;;
73437;SDS011;62744;56.802;23.964;2022-09-03T09:46:05;3.53;;;0.90;;
73437;SDS011;62744;56.802;23.964;2022-09-03T09:51:24;2.80;;;0.90;;
73437;SDS011;62744;56.802;23.964;2022-09-03T09:54:16;4.57;;;1.00;;
73437;SDS011;62744;56.802;23.964;2022-09-03T09:57:00;3.00;;;0.70;;
73437;SDS011;62744;56.802;23.964;2022-09-03T09:59:31;3.20;;;1.08;;
73437;SDS011;62744;56.802;23.964;2022-09-03T10:02:08;3.20;;;0.82;;
73437;SDS011;62744;56.802;23.964;2022-09-03T10:04:48;3.20;;;1.38;;
73437;SDS011;62744;56.802;23.964;2022-09-03T10:10:06;3.78;;;0.88;;
73437;SDS011;62744;56.802;23.964;2022-09-03T10:21:18;3.10;;;0.97;;
73437;SDS011;62744;56.802;23.964;2022-09-03T10:26:45;4.03;;;1.02;;
73437;SDS011;62744;56.802;23.964;2022-09-03T10:29:17;3.63;;;1.10;;
73437;SDS011;62744;56.802;23.964;2022-09-03T10:32:09;2.92;;;0.82;;
73437;SDS011;62744;56.802;23.964;2022-09-03T10:46:14;3.13;;;0.82;;
73437;SDS011;62744;56.802;23.964;2022-09-03T10:48:53;3.17;;;1.30;;
73437;SDS011;62744;56.802;23.964;2022-09-03T10:51:34;3.42;;;1.25;;
73437;SDS011;62744;56.802;23.964;2022-09-03T11:00:07;4.28;;;1.20;;
73437;SDS011;62744;56.802;23.964;2022-09-03T11:05:14;2.90;;;0.80;;
73437;SDS011;62744;56.802;23.964;2022-09-03T11:07:51;3.03;;;1.08;;
73437;SDS011;62744;56.802;23.964;2022-09-03T11:15:30;3.60;;;1.03;;
73437;SDS011;62744;56.802;23.964;2022-09-03T11:18:23;4.47;;;1.92;;
73437;SDS011;62744;56.802;23.964;2022-09-03T11:21:03;4.20;;;1.08;;
73437;SDS011;62744;56.802;23.964;2022-09-03T11:23:41;3.15;;;0.93;;
73437;SDS011;62744;56.802;23.964;2022-09-03T11:26:14;3.17;;;0.90;;
73437;SDS011;62744;56.802;23.964;2022-09-03T11:33:59;2.72;;;0.70;;
73437;SDS011;62744;56.802;23.964;2022-09-03T11:36:35;3.55;;;1.23;;
73437;SDS011;62744;56.802;23.964;2022-09-03T11:39:21;3.30;;;1.15;;
73437;SDS011;62744;56.802;23.964;2022-09-03T11:42:01;3.07;;;1.13;;
73437;SDS011;62744;56.802;23.964;2022-09-03T11:44:49;2.80;;;0.50;;
73437;SDS011;62744;56.802;23.964;2022-09-03T11:47:21;4.43;;;1.35;;
73437;SDS011;62744;56.802;23.964;2022-09-03T11:49:51;3.05;;;0.80;;
73437;SDS011;62744;56.802;23.964;2022-09-03T11:52:30;3.20;;;1.23;;
73437;SDS011;62744;56.802;23.964;2022-09-03T11:54:58;3.20;;;1.10;;
73437;SDS011;62744;56.802;23.964;2022-09-03T11:57:29;2.92;;;0.80;;
73437;SDS011;62744;56.802;23.964;2022-09-03T12:00:06;4.43;;;1.27;;
73437;SDS011;62744;56.802;23.964;2022-09-03T12:02:35;3.40;;;1.23;;
73437;SDS011;62744;56.802;23.964;2022-09-03T12:10:48;3.40;;;0.90;;
73437;SDS011;62744;56.802;23.964;2022-09-03T12:19:00;5.13;;;2.17;;
73437;SDS011;62744;56.802;23.964;2022-09-03T12:21:48;3.10;;;1.10;;
73437;SDS011;62744;56.802;23.964;2022-09-03T12:24:16;3.53;;;1.88;;
73437;SDS011;62744;56.802;23.964;2022-09-03T12:26:45;18.98;;;10.95;;
73437;SDS011;62744;56.802;23.964;2022-09-03T12:29:21;14.40;;;7.40;;
73437;SDS011;62744;56.802;23.964;2022-09-03T12:32:04;3.75;;;1.45;;
73437;SDS011;62744;56.802;23.964;2022-09-03T12:34:37;6.40;;;2.90;;
73437;SDS011;62744;56.802;23.964;2022-09-03T12:37:13;4.35;;;1.90;;
73437;SDS011;62744;56.802;23.964;2022-09-03T12:40:14;32.33;;;20.55;;
73437;SDS011;62744;56.802;23.964;2022-09-03T12:42:44;4.65;;;2.22;;
73437;SDS011;62744;56.802;23.964;2022-09-03T12:45:12;3.05;;;0.70;;
73437;SDS011;62744;56.802;23.964;2022-09-03T12:47:42;3.83;;;1.50;;
73437;SDS011;62744;56.802;23.964;2022-09-03T12:50:12;3.38;;;0.63;;
73437;SDS011;62744;56.802;23.964;2022-09-03T12:52:44;3.10;;;1.10;;
73437;SDS011;62744;56.802;23.964;2022-09-03T12:58:37;3.30;;;1.17;;
73437;SDS011;62744;56.802;23.964;2022-09-03T13:00:44;3.47;;;1.63;;
73437;SDS011;62744;56.802;23.964;2022-09-03T13:03:19;4.60;;;1.55;;
73437;SDS011;62744;56.802;23.964;2022-09-03T13:06:08;4.50;;;1.75;;
73437;SDS011;62744;56.802;23.964;2022-09-03T13:08:49;4.13;;;1.77;;
73437;SDS011;62744;56.802;23.964;2022-09-03T13:11:25;3.53;;;1.20;;
73437;SDS011;62744;56.802;23.964;2022-09-03T13:14:05;3.43;;;1.00;;
73437;SDS011;62744;56.802;23.964;2022-09-03T13:19:19;5.20;;;1.33;;
73437;SDS011;62744;56.802;23.964;2022-09-03T13:25:08;3.70;;;1.67;;
73437;SDS011;62744;56.802;23.964;2022-09-03T13:36:24;3.85;;;0.93;;
73437;SDS011;62744;56.802;23.964;2022-09-03T13:38:58;3.00;;;0.60;;
73437;SDS011;62744;56.802;23.964;2022-09-03T13:41:33;3.03;;;1.03;;
73437;SDS011;62744;56.802;23.964;2022-09-03T13:47:27;3.30;;;1.60;;
73437;SDS011;62744;56.802;23.964;2022-09-03T13:50:18;2.60;;;0.73;;
73437;SDS011;62744;56.802;23.964;2022-09-03T14:02:32;4.28;;;1.55;;
73437;SDS011;62744;56.802;23.964;2022-09-03T14:05:35;3.00;;;0.80;;
73437;SDS011;62744;56.802;23.964;2022-09-03T14:11:31;3.93;;;0.70;;
73437;SDS011;62744;56.802;23.964;2022-09-03T14:14:05;3.42;;;1.02;;
73437;SDS011;62744;56.802;23.964;2022-09-03T14:19:27;4.30;;;1.35;;
73437;SDS011;62744;56.802;23.964;2022-09-03T14:22:00;4.50;;;1.63;;
73437;SDS011;62744;56.802;23.964;2022-09-03T14:27:22;4.40;;;0.80;;
73437;SDS011;62744;56.802;23.964;2022-09-03T14:29:59;3.78;;;1.23;;
73437;SDS011;62744;56.802;23.964;2022-09-03T14:32:53;3.45;;;1.13;;
73437;SDS011;62744;56.802;23.964;2022-09-03T14:41:16;3.70;;;1.52;;
73437;SDS011;62744;56.802;23.964;2022-09-03T14:52:17;8.10;;;3.00;;
73437;SDS011;62744;56.802;23.964;2022-09-03T15:11:53;3.60;;;1.83;;
73437;SDS011;62744;56.802;23.964;2022-09-03T15:14:48;3.30;;;0.85;;
73437;SDS011;62744;56.802;23.964;2022-09-03T15:28:18;3.75;;;0.80;;
73437;SDS011;62744;56.802;23.964;2022-09-03T15:31:17;3.47;;;1.63;;
73437;SDS011;62744;56.802;23.964;2022-09-03T15:40:40;8.32;;;3.60;;
73437;SDS011;62744;56.802;23.964;2022-09-03T15:43:11;5.07;;;1.52;;
73437;SDS011;62744;56.802;23.964;2022-09-03T15:48:37;4.17;;;1.37;;
73437;SDS011;62744;56.802;23.964;2022-09-03T15:54:11;3.10;;;0.88;;
73437;SDS011;62744;56.802;23.964;2022-09-03T16:02:29;3.77;;;1.47;;
73437;SDS011;62744;56.802;23.964;2022-09-03T16:05:10;5.40;;;2.50;;
73437;SDS011;62744;56.802;23.964;2022-09-03T16:07:56;4.38;;;2.00;;
73437;SDS011;62744;56.802;23.964;2022-09-03T16:10:53;3.95;;;1.05;;
73437;SDS011;62744;56.802;23.964;2022-09-03T16:16:48;4.20;;;1.80;;
73437;SDS011;62744;56.802;23.964;2022-09-03T16:19:41;3.95;;;1.45;;
73437;SDS011;62744;56.802;23.964;2022-09-03T16:22:43;3.10;;;1.15;;
73437;SDS011;62744;56.802;23.964;2022-09-03T16:25:15;3.17;;;0.80;;
73437;SDS011;62744;56.802;23.964;2022-09-03T16:28:06;3.42;;;1.50;;
73437;SDS011;62744;56.802;23.964;2022-09-03T16:30:57;3.37;;;0.90;;
73437;SDS011;62744;56.802;23.964;2022-09-03T16:33:38;2.90;;;0.90;;
73437;SDS011;62744;56.802;23.964;2022-09-03T16:36:20;4.88;;;2.05;;
73437;SDS011;62744;56.802;23.964;2022-09-03T16:39:01;4.45;;;1.05;;
73437;SDS011;62744;56.802;23.964;2022-09-03T16:41:59;9.57;;;3.42;;
73437;SDS011;62744;56.802;23.964;2022-09-03T16:50:25;12.63;;;5.13;;
73437;SDS011;62744;56.802;23.964;2022-09-03T16:53:27;18.52;;;13.88;;
73437;SDS011;62744;56.802;23.964;2022-09-03T16:56:25;9.48;;;4.40;;
73437;SDS011;62744;56.802;23.964;2022-09-03T17:07:27;6.80;;;3.53;;
73437;SDS011;62744;56.802;23.964;2022-09-03T17:10:12;5.45;;;2.78;;
73437;SDS011;62744;56.802;23.964;2022-09-03T17:21:38;4.60;;;1.17;;
73437;SDS011;62744;56.802;23.964;2022-09-03T17:24:54;4.95;;;1.90;;
73437;SDS011;62744;56.802;23.964;2022-09-03T17:29:59;8.35;;;4.13;;
73437;SDS011;62744;56.802;23.964;2022-09-03T17:32:46;6.68;;;3.83;;
73437;SDS011;62744;56.802;23.964;2022-09-03T17:49:49;4.78;;;1.58;;
73437;SDS011;62744;56.802;23.964;2022-09-03T17:52:29;6.43;;;2.90;;
73437;SDS011;62744;56.802;23.964;2022-09-03T17:55:11;6.93;;;2.50;;
73437;SDS011;62744;56.802;23.964;2022-09-03T17:57:47;6.30;;;2.92;;
73437;SDS011;62744;56.802;23.964;2022-09-03T18:00:26;5.53;;;3.03;;
73437;SDS011;62744;56.802;23.964;2022-09-03T18:03:04;6.20;;;2.60;;
73437;SDS011;62744;56.802;23.964;2022-09-03T18:05:41;5.72;;;2.95;;
73437;SDS011;62744;56.802;23.964;2022-09-03T18:08:17;4.80;;;2.40;;
73437;SDS011;62744;56.802;23.964;2022-09-03T18:11:09;8.80;;;3.45;;
73437;SDS011;62744;56.802;23.964;2022-09-03T18:13:53;8.48;;;4.95;;
73437;SDS011;62744;56.802;23.964;2022-09-03T18:19:59;8.75;;;3.72;;
73437;SDS011;62744;56.802;23.964;2022-09-03T18:22:51;7.72;;;3.72;;
73437;SDS011;62744;56.802;23.964;2022-09-03T18:25:52;7.13;;;3.10;;
73437;SDS011;62744;56.802;23.964;2022-09-03T18:28:46;5.90;;;3.13;;
73437;SDS011;62744;56.802;23.964;2022-09-03T18:31:36;6.35;;;2.83;;
73437;SDS011;62744;56.802;23.964;2022-09-03T18:34:27;4.63;;;2.35;;
73437;SDS011;62744;56.802;23.964;2022-09-03T18:37:23;4.82;;;2.30;;
73437;SDS011;62744;56.802;23.964;2022-09-03T18:40:21;5.50;;;2.70;;
73437;SDS011;62744;56.802;23.964;2022-09-03T18:46:20;5.47;;;2.45;;
73437;SDS011;62744;56.802;23.964;2022-09-03T18:49:39;5.43;;;2.53;;
73437;SDS011;62744;56.802;23.964;2022-09-03T18:55:53;11.07;;;6.53;;
73437;SDS011;62744;56.802;23.964;2022-09-03T19:02:09;5.88;;;2.90;;
73437;SDS011;62744;56.802;23.964;2022-09-03T19:05:21;7.53;;;4.10;;
73437;SDS011;62744;56.802;23.964;2022-09-03T19:08:37;6.60;;;3.40;;
73437;SDS011;62744;56.802;23.964;2022-09-03T19:11:36;9.38;;;5.43;;
73437;SDS011;62744;56.802;23.964;2022-09-03T19:20:29;17.08;;;9.68;;
73437;SDS011;62744;56.802;23.964;2022-09-03T19:23:18;19.17;;;10.15;;
73437;SDS011;62744;56.802;23.964;2022-09-03T19:29:25;17.38;;;8.30;;
73437;SDS011;62744;56.802;23.964;2022-09-03T19:32:16;22.70;;;10.82;;
73437;SDS011;62744;56.802;23.964;2022-09-03T19:35:18;21.27;;;11.80;;
73437;SDS011;62744;56.802;23.964;2022-09-03T19:38:14;29.05;;;16.77;;
73437;SDS011;62744;56.802;23.964;2022-09-03T19:41:26;26.33;;;15.02;;
73437;SDS011;62744;56.802;23.964;2022-09-03T19:47:43;15.48;;;6.90;;
73437;SDS011;62744;56.802;23.964;2022-09-03T19:50:36;11.13;;;4.90;;
73437;SDS011;62744;56.802;23.964;2022-09-03T19:53:29;8.50;;;4.88;;
73437;SDS011;62744;56.802;23.964;2022-09-03T19:56:21;17.15;;;9.50;;
73437;SDS011;62744;56.802;23.964;2022-09-03T19:59:15;19.23;;;11.05;;
73437;SDS011;62744;56.802;23.964;2022-09-03T20:02:04;17.00;;;9.90;;
73437;SDS011;62744;56.802;23.964;2022-09-03T20:04:53;12.15;;;6.97;;
73437;SDS011;62744;56.802;23.964;2022-09-03T20:07:48;21.42;;;16.08;;
73437;SDS011;62744;56.802;23.964;2022-09-03T20:10:38;16.30;;;12.15;;
73437;SDS011;62744;56.802;23.964;2022-09-03T20:13:11;16.83;;;11.55;;
73437;SDS011;62744;56.802;23.964;2022-09-03T20:15:49;19.33;;;11.45;;
73437;SDS011;62744;56.802;23.964;2022-09-03T20:18:54;26.42;;;16.98;;
73437;SDS011;62744;56.802;23.964;2022-09-03T20:21:41;27.00;;;14.70;;
73437;SDS011;62744;56.802;23.964;2022-09-03T20:24:29;18.33;;;11.57;;
73437;SDS011;62744;56.802;23.964;2022-09-03T20:27:12;19.88;;;10.88;;